sensor_id;sensor_type;location;lat;lon;timestamp;P1;durP1;ratioP1;P2;durP2;ratioP2
21979;SDS011;11154;48.558;9.234;2024-03-08T00:00:44;18.15;;;13.18;;
21979;SDS011;11154;48.558;9.234;2024-03-08T00:02:45;19.10;;;14.07;;
21979;SDS011;11154;48.558;9.234;2024-03-08T00:04:48;19.88;;;14.75;;
21979;SDS011;11154;48.558;9.234;2024-03-08T00:06:48;18.35;;;13.73;;
21979;SDS011;11154;48.558;9.234;2024-03-08T00:08:52;20.60;;;14.43;;
21979;SDS011;11154;48.558;9.234;2024-03-08T00:10:53;21.55;;;14.48;;
21979;SDS011;11154;48.558;9.234;2024-03-08T00:12:55;20.70;;;15.05;;
21979;SDS011;11154;48.558;9.234;2024-03-08T00:14:57;20.02;;;13.90;;
21979;SDS011;11154;48.558;9.234;2024-03-08T00:16:59;21.70;;;14.63;;
21979;SDS011;11154;48.558;9.234;2024-03-08T00:19:01;20.83;;;13.63;;
21979;SDS011;11154;48.558;9.234;2024-03-08T00:21:02;18.10;;;12.73;;
21979;SDS011;11154;48.558;9.234;2024-03-08T00:23:04;21.02;;;14.48;;
21979;SDS011;11154;48.558;9.234;2024-03-08T00:25:08;19.13;;;13.55;;
21979;SDS011;11154;48.558;9.234;2024-03-08T00:27:09;20.85;;;14.38;;
21979;SDS011;11154;48.558;9.234;2024-03-08T00:29:12;19.10;;;13.70;;
21979;SDS011;11154;48.558;9.234;2024-03-08T00:31:14;18.65;;;13.45;;
21979;SDS011;11154;48.558;9.234;2024-03-08T00:33:17;16.48;;;12.27;;
21979;SDS011;11154;48.558;9.234;2024-03-08T00:35:18;20.52;;;14.68;;
21979;SDS011;11154;48.558;9.234;2024-03-08T00:37:20;17.40;;;13.43;;
21979;SDS011;11154;48.558;9.234;2024-03-08T00:39:22;17.90;;;12.75;;
21979;SDS011;11154;48.558;9.234;2024-03-08T00:41:25;20.42;;;13.68;;
21979;SDS011;11154;48.558;9.234;2024-03-08T00:43:27;21.00;;;14.57;;
21979;SDS011;11154;48.558;9.234;2024-03-08T00:45:30;18.63;;;13.55;;
21979;SDS011;11154;48.558;9.234;2024-03-08T00:47:32;20.38;;;14.13;;
21979;SDS011;11154;48.558;9.234;2024-03-08T00:49:34;20.63;;;14.23;;
21979;SDS011;11154;48.558;9.234;2024-03-08T00:51:34;17.85;;;12.70;;
21979;SDS011;11154;48.558;9.234;2024-03-08T00:53:36;17.98;;;13.20;;
21979;SDS011;11154;48.558;9.234;2024-03-08T00:55:38;18.50;;;13.57;;
21979;SDS011;11154;48.558;9.234;2024-03-08T00:57:40;21.35;;;13.70;;
21979;SDS011;11154;48.558;9.234;2024-03-08T00:59:42;19.90;;;13.38;;
21979;SDS011;11154;48.558;9.234;2024-03-08T01:01:43;17.60;;;12.50;;
21979;SDS011;11154;48.558;9.234;2024-03-08T01:03:45;18.15;;;13.38;;
21979;SDS011;11154;48.558;9.234;2024-03-08T01:05:47;20.38;;;14.15;;
21979;SDS011;11154;48.558;9.234;2024-03-08T01:07:48;25.25;;;15.18;;
21979;SDS011;11154;48.558;9.234;2024-03-08T01:09:49;18.48;;;13.85;;
21979;SDS011;11154;48.558;9.234;2024-03-08T01:11:51;19.77;;;13.13;;
21979;SDS011;11154;48.558;9.234;2024-03-08T01:13:55;19.17;;;13.55;;
21979;SDS011;11154;48.558;9.234;2024-03-08T01:15:57;19.88;;;12.90;;
21979;SDS011;11154;48.558;9.234;2024-03-08T01:17:59;19.50;;;13.35;;
21979;SDS011;11154;48.558;9.234;2024-03-08T01:20:00;18.60;;;13.07;;
21979;SDS011;11154;48.558;9.234;2024-03-08T01:22:02;19.73;;;13.20;;
21979;SDS011;11154;48.558;9.234;2024-03-08T01:24:04;16.95;;;12.75;;
21979;SDS011;11154;48.558;9.234;2024-03-08T01:26:06;19.15;;;13.00;;
21979;SDS011;11154;48.558;9.234;2024-03-08T01:28:08;18.80;;;13.63;;
21979;SDS011;11154;48.558;9.234;2024-03-08T01:30:11;17.80;;;12.50;;
21979;SDS011;11154;48.558;9.234;2024-03-08T01:32:13;17.55;;;12.48;;
21979;SDS011;11154;48.558;9.234;2024-03-08T01:34:13;18.85;;;12.73;;
21979;SDS011;11154;48.558;9.234;2024-03-08T01:36:15;17.77;;;12.20;;
21979;SDS011;11154;48.558;9.234;2024-03-08T01:38:18;16.80;;;12.18;;
21979;SDS011;11154;48.558;9.234;2024-03-08T01:40:21;18.42;;;13.02;;
21979;SDS011;11154;48.558;9.234;2024-03-08T01:42:22;19.65;;;12.98;;
21979;SDS011;11154;48.558;9.234;2024-03-08T01:44:23;17.52;;;12.70;;
21979;SDS011;11154;48.558;9.234;2024-03-08T01:46:26;16.33;;;11.73;;
21979;SDS011;11154;48.558;9.234;2024-03-08T01:48:28;17.90;;;12.40;;
21979;SDS011;11154;48.558;9.234;2024-03-08T01:50:31;18.30;;;13.23;;
21979;SDS011;11154;48.558;9.234;2024-03-08T01:52:32;17.40;;;12.43;;
21979;SDS011;11154;48.558;9.234;2024-03-08T01:54:36;17.77;;;12.13;;
21979;SDS011;11154;48.558;9.234;2024-03-08T01:56:38;16.20;;;12.02;;
21979;SDS011;11154;48.558;9.234;2024-03-08T01:58:40;17.52;;;12.73;;
21979;SDS011;11154;48.558;9.234;2024-03-08T02:00:44;17.83;;;13.55;;
21979;SDS011;11154;48.558;9.234;2024-03-08T02:02:50;18.05;;;15.07;;
21979;SDS011;11154;48.558;9.234;2024-03-08T02:04:53;17.52;;;14.70;;
21979;SDS011;11154;48.558;9.234;2024-03-08T02:06:55;20.20;;;16.05;;
21979;SDS011;11154;48.558;9.234;2024-03-08T02:08:58;19.13;;;15.70;;
21979;SDS011;11154;48.558;9.234;2024-03-08T02:11:00;18.83;;;16.00;;
21979;SDS011;11154;48.558;9.234;2024-03-08T02:13:02;20.00;;;16.50;;
21979;SDS011;11154;48.558;9.234;2024-03-08T02:15:04;20.40;;;16.80;;
21979;SDS011;11154;48.558;9.234;2024-03-08T02:17:07;21.98;;;17.63;;
21979;SDS011;11154;48.558;9.234;2024-03-08T02:19:11;22.40;;;16.85;;
21979;SDS011;11154;48.558;9.234;2024-03-08T02:21:15;20.17;;;16.85;;
21979;SDS011;11154;48.558;9.234;2024-03-08T02:23:19;20.67;;;16.13;;
21979;SDS011;11154;48.558;9.234;2024-03-08T02:25:20;20.58;;;17.08;;
21979;SDS011;11154;48.558;9.234;2024-03-08T02:27:23;21.35;;;17.40;;
21979;SDS011;11154;48.558;9.234;2024-03-08T02:29:25;21.23;;;16.25;;
21979;SDS011;11154;48.558;9.234;2024-03-08T02:31:27;19.23;;;15.65;;
21979;SDS011;11154;48.558;9.234;2024-03-08T02:33:28;21.83;;;16.90;;
21979;SDS011;11154;48.558;9.234;2024-03-08T02:35:30;18.70;;;15.75;;
21979;SDS011;11154;48.558;9.234;2024-03-08T02:37:33;18.98;;;15.90;;
21979;SDS011;11154;48.558;9.234;2024-03-08T02:39:34;20.13;;;15.95;;
21979;SDS011;11154;48.558;9.234;2024-03-08T02:41:36;20.20;;;15.60;;
21979;SDS011;11154;48.558;9.234;2024-03-08T02:43:38;19.30;;;15.63;;
21979;SDS011;11154;48.558;9.234;2024-03-08T02:45:39;19.55;;;16.17;;
21979;SDS011;11154;48.558;9.234;2024-03-08T02:47:42;19.63;;;15.45;;
21979;SDS011;11154;48.558;9.234;2024-03-08T02:49:43;21.60;;;16.45;;
21979;SDS011;11154;48.558;9.234;2024-03-08T02:51:45;20.52;;;16.52;;
21979;SDS011;11154;48.558;9.234;2024-03-08T02:53:47;18.98;;;15.75;;
21979;SDS011;11154;48.558;9.234;2024-03-08T02:55:51;19.38;;;15.93;;
21979;SDS011;11154;48.558;9.234;2024-03-08T02:57:53;19.25;;;15.68;;
21979;SDS011;11154;48.558;9.234;2024-03-08T02:59:54;20.00;;;15.90;;
21979;SDS011;11154;48.558;9.234;2024-03-08T03:01:56;17.98;;;15.30;;
21979;SDS011;11154;48.558;9.234;2024-03-08T03:03:57;18.60;;;16.15;;
21979;SDS011;11154;48.558;9.234;2024-03-08T03:05:58;19.00;;;15.60;;
21979;SDS011;11154;48.558;9.234;2024-03-08T03:08:01;18.10;;;15.18;;
21979;SDS011;11154;48.558;9.234;2024-03-08T03:10:06;19.33;;;15.55;;
21979;SDS011;11154;48.558;9.234;2024-03-08T03:12:08;19.70;;;15.93;;
21979;SDS011;11154;48.558;9.234;2024-03-08T03:14:10;18.65;;;15.43;;
21979;SDS011;11154;48.558;9.234;2024-03-08T03:16:11;18.50;;;15.65;;
21979;SDS011;11154;48.558;9.234;2024-03-08T03:18:17;18.23;;;15.68;;
21979;SDS011;11154;48.558;9.234;2024-03-08T03:20:21;19.25;;;15.93;;
21979;SDS011;11154;48.558;9.234;2024-03-08T03:22:26;18.25;;;15.60;;
21979;SDS011;11154;48.558;9.234;2024-03-08T03:24:30;19.23;;;15.60;;
21979;SDS011;11154;48.558;9.234;2024-03-08T03:26:35;18.67;;;15.73;;
21979;SDS011;11154;48.558;9.234;2024-03-08T03:28:37;20.25;;;15.25;;
21979;SDS011;11154;48.558;9.234;2024-03-08T03:30:40;20.85;;;15.02;;
21979;SDS011;11154;48.558;9.234;2024-03-08T03:32:41;18.17;;;15.38;;
21979;SDS011;11154;48.558;9.234;2024-03-08T03:34:47;19.58;;;16.45;;
21979;SDS011;11154;48.558;9.234;2024-03-08T03:36:48;21.20;;;16.33;;
21979;SDS011;11154;48.558;9.234;2024-03-08T03:38:50;19.17;;;15.52;;
21979;SDS011;11154;48.558;9.234;2024-03-08T03:40:52;19.55;;;15.73;;
21979;SDS011;11154;48.558;9.234;2024-03-08T03:42:58;18.77;;;16.08;;
21979;SDS011;11154;48.558;9.234;2024-03-08T03:44:59;21.25;;;16.17;;
21979;SDS011;11154;48.558;9.234;2024-03-08T03:47:02;19.65;;;15.75;;
21979;SDS011;11154;48.558;9.234;2024-03-08T03:49:03;22.02;;;16.58;;
21979;SDS011;11154;48.558;9.234;2024-03-08T03:51:04;18.98;;;16.27;;
21979;SDS011;11154;48.558;9.234;2024-03-08T03:53:07;20.02;;;16.10;;
21979;SDS011;11154;48.558;9.234;2024-03-08T03:55:13;20.00;;;16.40;;
21979;SDS011;11154;48.558;9.234;2024-03-08T03:57:15;20.60;;;16.65;;
21979;SDS011;11154;48.558;9.234;2024-03-08T03:59:19;20.58;;;16.92;;
21979;SDS011;11154;48.558;9.234;2024-03-08T04:01:20;21.75;;;17.17;;
21979;SDS011;11154;48.558;9.234;2024-03-08T04:03:22;26.20;;;16.88;;
21979;SDS011;11154;48.558;9.234;2024-03-08T04:05:23;22.67;;;15.70;;
21979;SDS011;11154;48.558;9.234;2024-03-08T04:07:25;19.70;;;14.25;;
21979;SDS011;11154;48.558;9.234;2024-03-08T04:09:26;20.00;;;13.98;;
21979;SDS011;11154;48.558;9.234;2024-03-08T04:11:27;19.33;;;13.98;;
21979;SDS011;11154;48.558;9.234;2024-03-08T04:13:29;18.70;;;13.88;;
21979;SDS011;11154;48.558;9.234;2024-03-08T04:15:31;20.42;;;13.75;;
21979;SDS011;11154;48.558;9.234;2024-03-08T04:17:33;20.02;;;14.23;;
21979;SDS011;11154;48.558;9.234;2024-03-08T04:19:37;19.00;;;13.27;;
21979;SDS011;11154;48.558;9.234;2024-03-08T04:21:39;19.15;;;13.38;;
21979;SDS011;11154;48.558;9.234;2024-03-08T04:23:40;17.73;;;12.63;;
21979;SDS011;11154;48.558;9.234;2024-03-08T04:25:41;18.45;;;13.30;;
21979;SDS011;11154;48.558;9.234;2024-03-08T04:27:43;19.15;;;12.50;;
21979;SDS011;11154;48.558;9.234;2024-03-08T04:29:45;18.35;;;11.50;;
21979;SDS011;11154;48.558;9.234;2024-03-08T04:31:48;21.08;;;12.57;;
21979;SDS011;11154;48.558;9.234;2024-03-08T04:33:49;17.50;;;11.32;;
21979;SDS011;11154;48.558;9.234;2024-03-08T04:35:51;17.52;;;12.98;;
21979;SDS011;11154;48.558;9.234;2024-03-08T04:37:51;18.55;;;12.95;;
21979;SDS011;11154;48.558;9.234;2024-03-08T04:39:53;18.77;;;13.02;;
21979;SDS011;11154;48.558;9.234;2024-03-08T04:41:55;18.15;;;12.30;;
21979;SDS011;11154;48.558;9.234;2024-03-08T04:43:59;22.52;;;13.63;;
21979;SDS011;11154;48.558;9.234;2024-03-08T04:46:01;16.90;;;12.85;;
21979;SDS011;11154;48.558;9.234;2024-03-08T04:48:05;18.60;;;12.82;;
21979;SDS011;11154;48.558;9.234;2024-03-08T04:50:08;16.50;;;11.95;;
21979;SDS011;11154;48.558;9.234;2024-03-08T04:52:11;16.98;;;12.73;;
21979;SDS011;11154;48.558;9.234;2024-03-08T04:54:13;18.48;;;13.40;;
21979;SDS011;11154;48.558;9.234;2024-03-08T04:56:14;18.50;;;12.57;;
21979;SDS011;11154;48.558;9.234;2024-03-08T04:58:16;18.42;;;13.00;;
21979;SDS011;11154;48.558;9.234;2024-03-08T05:00:18;16.80;;;12.18;;
21979;SDS011;11154;48.558;9.234;2024-03-08T05:02:20;17.65;;;12.73;;
21979;SDS011;11154;48.558;9.234;2024-03-08T05:04:24;18.63;;;13.43;;
21979;SDS011;11154;48.558;9.234;2024-03-08T05:06:26;18.95;;;12.95;;
21979;SDS011;11154;48.558;9.234;2024-03-08T05:08:26;18.15;;;12.73;;
21979;SDS011;11154;48.558;9.234;2024-03-08T05:10:28;18.73;;;12.52;;
21979;SDS011;11154;48.558;9.234;2024-03-08T05:12:30;18.77;;;13.32;;
21979;SDS011;11154;48.558;9.234;2024-03-08T05:14:31;20.42;;;13.13;;
21979;SDS011;11154;48.558;9.234;2024-03-08T05:16:34;17.70;;;12.32;;
21979;SDS011;11154;48.558;9.234;2024-03-08T05:18:36;17.00;;;12.70;;
21979;SDS011;11154;48.558;9.234;2024-03-08T05:20:39;17.48;;;12.00;;
21979;SDS011;11154;48.558;9.234;2024-03-08T05:22:41;16.60;;;11.75;;
21979;SDS011;11154;48.558;9.234;2024-03-08T05:24:43;20.67;;;12.60;;
21979;SDS011;11154;48.558;9.234;2024-03-08T05:26:44;17.15;;;12.68;;
21979;SDS011;11154;48.558;9.234;2024-03-08T05:28:47;16.75;;;12.48;;
21979;SDS011;11154;48.558;9.234;2024-03-08T05:30:48;19.15;;;12.73;;
21979;SDS011;11154;48.558;9.234;2024-03-08T05:32:50;18.75;;;13.18;;
21979;SDS011;11154;48.558;9.234;2024-03-08T05:34:52;19.40;;;13.30;;
21979;SDS011;11154;48.558;9.234;2024-03-08T05:36:55;20.50;;;12.55;;
21979;SDS011;11154;48.558;9.234;2024-03-08T05:38:58;17.25;;;12.73;;
21979;SDS011;11154;48.558;9.234;2024-03-08T05:40:58;17.52;;;12.15;;
21979;SDS011;11154;48.558;9.234;2024-03-08T05:43:01;20.40;;;13.25;;
21979;SDS011;11154;48.558;9.234;2024-03-08T05:45:01;16.80;;;12.55;;
21979;SDS011;11154;48.558;9.234;2024-03-08T05:47:03;18.95;;;13.18;;
21979;SDS011;11154;48.558;9.234;2024-03-08T05:49:07;17.17;;;12.23;;
21979;SDS011;11154;48.558;9.234;2024-03-08T05:51:10;17.92;;;12.63;;
21979;SDS011;11154;48.558;9.234;2024-03-08T05:53:13;17.63;;;12.93;;
21979;SDS011;11154;48.558;9.234;2024-03-08T05:55:15;18.13;;;12.50;;
21979;SDS011;11154;48.558;9.234;2024-03-08T05:57:17;17.40;;;11.88;;
21979;SDS011;11154;48.558;9.234;2024-03-08T05:59:18;20.02;;;12.75;;
21979;SDS011;11154;48.558;9.234;2024-03-08T06:01:20;18.75;;;13.02;;
21979;SDS011;11154;48.558;9.234;2024-03-08T06:03:22;18.25;;;12.93;;
21979;SDS011;11154;48.558;9.234;2024-03-08T06:05:23;19.90;;;13.35;;
21979;SDS011;11154;48.558;9.234;2024-03-08T06:07:25;19.85;;;13.65;;
21979;SDS011;11154;48.558;9.234;2024-03-08T06:09:28;16.65;;;12.02;;
21979;SDS011;11154;48.558;9.234;2024-03-08T06:11:30;18.00;;;13.02;;
21979;SDS011;11154;48.558;9.234;2024-03-08T06:13:31;22.05;;;13.05;;
21979;SDS011;11154;48.558;9.234;2024-03-08T06:15:34;17.20;;;13.55;;
21979;SDS011;11154;48.558;9.234;2024-03-08T06:17:36;17.75;;;13.20;;
21979;SDS011;11154;48.558;9.234;2024-03-08T06:19:37;20.83;;;13.98;;
21979;SDS011;11154;48.558;9.234;2024-03-08T06:21:39;23.60;;;13.82;;
21979;SDS011;11154;48.558;9.234;2024-03-08T06:23:41;20.92;;;13.82;;
21979;SDS011;11154;48.558;9.234;2024-03-08T06:25:44;19.98;;;14.02;;
21979;SDS011;11154;48.558;9.234;2024-03-08T06:27:46;20.65;;;14.85;;
21979;SDS011;11154;48.558;9.234;2024-03-08T06:29:47;21.52;;;14.00;;
21979;SDS011;11154;48.558;9.234;2024-03-08T06:31:50;21.13;;;14.05;;
21979;SDS011;11154;48.558;9.234;2024-03-08T06:33:51;20.90;;;13.85;;
21979;SDS011;11154;48.558;9.234;2024-03-08T06:35:54;21.08;;;13.90;;
21979;SDS011;11154;48.558;9.234;2024-03-08T06:37:57;19.45;;;13.82;;
21979;SDS011;11154;48.558;9.234;2024-03-08T06:39:59;21.77;;;14.35;;
21979;SDS011;11154;48.558;9.234;2024-03-08T06:42:03;23.00;;;14.23;;
21979;SDS011;11154;48.558;9.234;2024-03-08T06:44:05;22.40;;;14.00;;
21979;SDS011;11154;48.558;9.234;2024-03-08T06:46:08;20.58;;;15.07;;
21979;SDS011;11154;48.558;9.234;2024-03-08T06:48:10;21.63;;;14.63;;
21979;SDS011;11154;48.558;9.234;2024-03-08T06:50:12;21.02;;;14.02;;
21979;SDS011;11154;48.558;9.234;2024-03-08T06:52:15;20.17;;;14.45;;
21979;SDS011;11154;48.558;9.234;2024-03-08T06:54:16;23.63;;;16.50;;
21979;SDS011;11154;48.558;9.234;2024-03-08T06:56:18;22.98;;;15.20;;
21979;SDS011;11154;48.558;9.234;2024-03-08T06:58:22;22.58;;;15.30;;
21979;SDS011;11154;48.558;9.234;2024-03-08T07:00:23;19.85;;;14.45;;
21979;SDS011;11154;48.558;9.234;2024-03-08T07:02:27;20.58;;;14.52;;
21979;SDS011;11154;48.558;9.234;2024-03-08T07:04:29;21.95;;;15.15;;
21979;SDS011;11154;48.558;9.234;2024-03-08T07:06:32;28.30;;;17.10;;
21979;SDS011;11154;48.558;9.234;2024-03-08T07:08:34;27.92;;;17.77;;
21979;SDS011;11154;48.558;9.234;2024-03-08T07:10:36;27.05;;;18.02;;
21979;SDS011;11154;48.558;9.234;2024-03-08T07:12:38;21.13;;;14.02;;
21979;SDS011;11154;48.558;9.234;2024-03-08T07:14:41;19.92;;;12.85;;
21979;SDS011;11154;48.558;9.234;2024-03-08T07:16:45;23.73;;;13.57;;
21979;SDS011;11154;48.558;9.234;2024-03-08T07:18:46;29.65;;;18.23;;
21979;SDS011;11154;48.558;9.234;2024-03-08T07:20:52;22.42;;;15.18;;
21979;SDS011;11154;48.558;9.234;2024-03-08T07:22:54;21.00;;;13.18;;
21979;SDS011;11154;48.558;9.234;2024-03-08T07:24:55;17.65;;;13.23;;
21979;SDS011;11154;48.558;9.234;2024-03-08T07:27:16;17.15;;;12.02;;
21979;SDS011;11154;48.558;9.234;2024-03-08T07:29:18;18.08;;;12.57;;
21979;SDS011;11154;48.558;9.234;2024-03-08T07:31:21;19.90;;;13.80;;
21979;SDS011;11154;48.558;9.234;2024-03-08T07:33:31;18.45;;;12.43;;
21979;SDS011;11154;48.558;9.234;2024-03-08T07:35:34;19.48;;;12.30;;
21979;SDS011;11154;48.558;9.234;2024-03-08T07:37:37;16.17;;;12.27;;
21979;SDS011;11154;48.558;9.234;2024-03-08T07:39:39;15.77;;;11.98;;
21979;SDS011;11154;48.558;9.234;2024-03-08T07:41:41;16.70;;;12.20;;
21979;SDS011;11154;48.558;9.234;2024-03-08T07:43:43;15.60;;;11.98;;
21979;SDS011;11154;48.558;9.234;2024-03-08T07:45:45;17.02;;;11.32;;
21979;SDS011;11154;48.558;9.234;2024-03-08T07:47:48;15.60;;;11.70;;
21979;SDS011;11154;48.558;9.234;2024-03-08T07:49:51;14.75;;;11.23;;
21979;SDS011;11154;48.558;9.234;2024-03-08T07:51:54;17.02;;;11.15;;
21979;SDS011;11154;48.558;9.234;2024-03-08T07:53:55;18.30;;;12.15;;
21979;SDS011;11154;48.558;9.234;2024-03-08T07:55:57;15.88;;;11.63;;
21979;SDS011;11154;48.558;9.234;2024-03-08T07:57:58;18.02;;;12.05;;
21979;SDS011;11154;48.558;9.234;2024-03-08T07:59:59;16.25;;;11.63;;
21979;SDS011;11154;48.558;9.234;2024-03-08T08:02:02;14.95;;;11.48;;
21979;SDS011;11154;48.558;9.234;2024-03-08T08:04:05;17.85;;;11.00;;
21979;SDS011;11154;48.558;9.234;2024-03-08T08:06:08;17.63;;;10.88;;
21979;SDS011;11154;48.558;9.234;2024-03-08T08:08:09;17.77;;;11.32;;
21979;SDS011;11154;48.558;9.234;2024-03-08T08:10:11;16.92;;;12.07;;
21979;SDS011;11154;48.558;9.234;2024-03-08T08:12:18;16.40;;;11.48;;
21979;SDS011;11154;48.558;9.234;2024-03-08T08:14:21;15.65;;;11.43;;
21979;SDS011;11154;48.558;9.234;2024-03-08T08:16:22;15.30;;;11.32;;
21979;SDS011;11154;48.558;9.234;2024-03-08T08:18:25;16.65;;;12.05;;
21979;SDS011;11154;48.558;9.234;2024-03-08T08:20:28;14.60;;;11.25;;
21979;SDS011;11154;48.558;9.234;2024-03-08T08:22:30;14.40;;;10.65;;
21979;SDS011;11154;48.558;9.234;2024-03-08T08:24:32;17.30;;;11.38;;
21979;SDS011;11154;48.558;9.234;2024-03-08T08:26:34;14.75;;;11.15;;
21979;SDS011;11154;48.558;9.234;2024-03-08T08:28:36;16.23;;;11.45;;
21979;SDS011;11154;48.558;9.234;2024-03-08T08:30:38;16.55;;;10.98;;
21979;SDS011;11154;48.558;9.234;2024-03-08T08:32:39;16.27;;;10.93;;
21979;SDS011;11154;48.558;9.234;2024-03-08T08:34:43;16.52;;;11.52;;
21979;SDS011;11154;48.558;9.234;2024-03-08T08:36:45;16.08;;;10.93;;
21979;SDS011;11154;48.558;9.234;2024-03-08T08:38:47;14.70;;;10.98;;
21979;SDS011;11154;48.558;9.234;2024-03-08T08:40:48;14.88;;;10.52;;
21979;SDS011;11154;48.558;9.234;2024-03-08T08:42:50;13.98;;;10.40;;
21979;SDS011;11154;48.558;9.234;2024-03-08T08:44:52;15.50;;;10.88;;
21979;SDS011;11154;48.558;9.234;2024-03-08T08:46:53;15.60;;;10.38;;
21979;SDS011;11154;48.558;9.234;2024-03-08T08:48:55;14.77;;;11.32;;
21979;SDS011;11154;48.558;9.234;2024-03-08T08:50:56;15.15;;;10.48;;
21979;SDS011;11154;48.558;9.234;2024-03-08T08:52:59;15.20;;;11.02;;
21979;SDS011;11154;48.558;9.234;2024-03-08T08:55:00;15.55;;;10.70;;
21979;SDS011;11154;48.558;9.234;2024-03-08T08:57:03;15.20;;;11.52;;
21979;SDS011;11154;48.558;9.234;2024-03-08T08:59:07;17.38;;;11.60;;
21979;SDS011;11154;48.558;9.234;2024-03-08T09:01:09;16.08;;;11.43;;
21979;SDS011;11154;48.558;9.234;2024-03-08T09:03:11;14.77;;;11.43;;
21979;SDS011;11154;48.558;9.234;2024-03-08T09:05:13;14.68;;;10.93;;
21979;SDS011;11154;48.558;9.234;2024-03-08T09:07:16;14.63;;;11.18;;
21979;SDS011;11154;48.558;9.234;2024-03-08T09:09:20;16.88;;;11.52;;
21979;SDS011;11154;48.558;9.234;2024-03-08T09:11:22;16.15;;;11.30;;
21979;SDS011;11154;48.558;9.234;2024-03-08T09:13:24;15.70;;;12.18;;
21979;SDS011;11154;48.558;9.234;2024-03-08T09:15:26;15.50;;;11.65;;
21979;SDS011;11154;48.558;9.234;2024-03-08T09:17:28;14.73;;;10.88;;
21979;SDS011;11154;48.558;9.234;2024-03-08T09:19:30;16.67;;;11.25;;
21979;SDS011;11154;48.558;9.234;2024-03-08T09:21:33;15.00;;;10.60;;
21979;SDS011;11154;48.558;9.234;2024-03-08T09:23:36;15.52;;;11.68;;
21979;SDS011;11154;48.558;9.234;2024-03-08T09:25:39;16.80;;;11.52;;
21979;SDS011;11154;48.558;9.234;2024-03-08T09:27:41;15.25;;;11.40;;
21979;SDS011;11154;48.558;9.234;2024-03-08T09:29:43;18.77;;;12.43;;
21979;SDS011;11154;48.558;9.234;2024-03-08T09:31:44;15.18;;;11.25;;
21979;SDS011;11154;48.558;9.234;2024-03-08T09:33:47;16.88;;;12.20;;
21979;SDS011;11154;48.558;9.234;2024-03-08T09:35:47;16.63;;;11.95;;
21979;SDS011;11154;48.558;9.234;2024-03-08T09:37:51;14.65;;;11.48;;
21979;SDS011;11154;48.558;9.234;2024-03-08T09:39:53;16.77;;;12.32;;
21979;SDS011;11154;48.558;9.234;2024-03-08T09:41:55;16.35;;;11.20;;
21979;SDS011;11154;48.558;9.234;2024-03-08T09:43:57;16.88;;;11.38;;
21979;SDS011;11154;48.558;9.234;2024-03-08T09:46:00;16.92;;;11.18;;
21979;SDS011;11154;48.558;9.234;2024-03-08T09:48:01;16.08;;;11.98;;
21979;SDS011;11154;48.558;9.234;2024-03-08T09:50:03;14.40;;;10.80;;
21979;SDS011;11154;48.558;9.234;2024-03-08T09:52:09;15.75;;;10.90;;
21979;SDS011;11154;48.558;9.234;2024-03-08T09:54:12;15.02;;;11.70;;
21979;SDS011;11154;48.558;9.234;2024-03-08T09:56:16;17.08;;;12.32;;
21979;SDS011;11154;48.558;9.234;2024-03-08T09:58:20;17.58;;;12.57;;
21979;SDS011;11154;48.558;9.234;2024-03-08T10:00:48;16.52;;;11.40;;
21979;SDS011;11154;48.558;9.234;2024-03-08T10:02:50;18.38;;;11.77;;
21979;SDS011;11154;48.558;9.234;2024-03-08T10:04:53;13.77;;;11.18;;
21979;SDS011;11154;48.558;9.234;2024-03-08T10:06:55;17.33;;;12.07;;
21979;SDS011;11154;48.558;9.234;2024-03-08T10:08:59;17.33;;;12.05;;
21979;SDS011;11154;48.558;9.234;2024-03-08T10:11:00;20.65;;;11.98;;
21979;SDS011;11154;48.558;9.234;2024-03-08T10:13:02;16.73;;;11.85;;
21979;SDS011;11154;48.558;9.234;2024-03-08T10:15:08;15.90;;;11.38;;
21979;SDS011;11154;48.558;9.234;2024-03-08T10:17:12;17.00;;;12.07;;
21979;SDS011;11154;48.558;9.234;2024-03-08T10:19:14;18.67;;;11.88;;
21979;SDS011;11154;48.558;9.234;2024-03-08T10:21:17;15.52;;;11.52;;
21979;SDS011;11154;48.558;9.234;2024-03-08T10:23:19;16.40;;;11.80;;
21979;SDS011;11154;48.558;9.234;2024-03-08T10:25:21;17.95;;;12.35;;
21979;SDS011;11154;48.558;9.234;2024-03-08T10:27:24;17.17;;;11.27;;
21979;SDS011;11154;48.558;9.234;2024-03-08T10:29:26;18.83;;;12.68;;
21979;SDS011;11154;48.558;9.234;2024-03-08T10:31:30;15.73;;;11.70;;
21979;SDS011;11154;48.558;9.234;2024-03-08T10:33:34;15.32;;;10.98;;
21979;SDS011;11154;48.558;9.234;2024-03-08T10:35:35;15.25;;;11.35;;
21979;SDS011;11154;48.558;9.234;2024-03-08T10:37:38;15.52;;;11.73;;
21979;SDS011;11154;48.558;9.234;2024-03-08T10:39:48;18.27;;;12.07;;
21979;SDS011;11154;48.558;9.234;2024-03-08T10:42:02;15.68;;;11.90;;
21979;SDS011;11154;48.558;9.234;2024-03-08T10:44:09;16.35;;;11.55;;
21979;SDS011;11154;48.558;9.234;2024-03-08T10:46:19;17.38;;;12.13;;
21979;SDS011;11154;48.558;9.234;2024-03-08T10:48:28;19.00;;;11.93;;
21979;SDS011;11154;48.558;9.234;2024-03-08T10:50:32;14.07;;;11.15;;
21979;SDS011;11154;48.558;9.234;2024-03-08T10:52:36;17.27;;;11.82;;
21979;SDS011;11154;48.558;9.234;2024-03-08T10:54:38;15.52;;;10.65;;
21979;SDS011;11154;48.558;9.234;2024-03-08T10:56:42;15.45;;;11.32;;
21979;SDS011;11154;48.558;9.234;2024-03-08T10:58:44;14.98;;;11.02;;
21979;SDS011;11154;48.558;9.234;2024-03-08T11:00:47;19.17;;;10.80;;
21979;SDS011;11154;48.558;9.234;2024-03-08T11:02:50;15.00;;;11.38;;
21979;SDS011;11154;48.558;9.234;2024-03-08T11:04:53;16.38;;;10.95;;
21979;SDS011;11154;48.558;9.234;2024-03-08T11:07:00;15.77;;;10.85;;
21979;SDS011;11154;48.558;9.234;2024-03-08T11:09:08;15.05;;;11.38;;
21979;SDS011;11154;48.558;9.234;2024-03-08T11:11:29;15.65;;;11.20;;
21979;SDS011;11154;48.558;9.234;2024-03-08T11:13:32;16.30;;;10.82;;
21979;SDS011;11154;48.558;9.234;2024-03-08T11:15:33;14.93;;;11.32;;
21979;SDS011;11154;48.558;9.234;2024-03-08T11:17:41;15.18;;;11.15;;
21979;SDS011;11154;48.558;9.234;2024-03-08T11:19:47;14.70;;;10.90;;
21979;SDS011;11154;48.558;9.234;2024-03-08T11:21:50;15.07;;;11.05;;
21979;SDS011;11154;48.558;9.234;2024-03-08T11:23:59;15.93;;;11.02;;
21979;SDS011;11154;48.558;9.234;2024-03-08T11:26:00;15.57;;;11.25;;
21979;SDS011;11154;48.558;9.234;2024-03-08T11:28:09;14.95;;;11.30;;
21979;SDS011;11154;48.558;9.234;2024-03-08T11:30:16;16.95;;;12.57;;
21979;SDS011;11154;48.558;9.234;2024-03-08T11:32:27;15.57;;;11.57;;
21979;SDS011;11154;48.558;9.234;2024-03-08T11:34:31;14.38;;;11.07;;
21979;SDS011;11154;48.558;9.234;2024-03-08T11:36:33;16.55;;;11.68;;
21979;SDS011;11154;48.558;9.234;2024-03-08T11:38:41;15.05;;;11.68;;
21979;SDS011;11154;48.558;9.234;2024-03-08T11:40:45;18.20;;;11.93;;
21979;SDS011;11154;48.558;9.234;2024-03-08T11:42:50;18.15;;;11.68;;
21979;SDS011;11154;48.558;9.234;2024-03-08T11:44:52;18.60;;;12.40;;
21979;SDS011;11154;48.558;9.234;2024-03-08T11:46:54;15.65;;;11.80;;
21979;SDS011;11154;48.558;9.234;2024-03-08T11:48:56;17.77;;;11.38;;
21979;SDS011;11154;48.558;9.234;2024-03-08T11:50:59;15.32;;;11.60;;
21979;SDS011;11154;48.558;9.234;2024-03-08T11:53:01;14.18;;;11.15;;
21979;SDS011;11154;48.558;9.234;2024-03-08T11:55:05;15.55;;;11.57;;
21979;SDS011;11154;48.558;9.234;2024-03-08T11:57:07;16.65;;;11.77;;